sensor_id;sensor_type;location;lat;lon;timestamp;P1;durP1;ratioP1;P2;durP2;ratioP2
37905;SDS011;23739;51.448;6.674;2023-05-10T00:00:44;14.98;;;10.07;;
37905;SDS011;23739;51.448;6.674;2023-05-10T00:03:11;15.52;;;11.75;;
37905;SDS011;23739;51.448;6.674;2023-05-10T00:05:37;16.25;;;12.02;;
37905;SDS011;23739;51.448;6.674;2023-05-10T00:08:03;13.13;;;10.88;;
37905;SDS011;23739;51.448;6.674;2023-05-10T00:10:29;14.40;;;10.43;;
37905;SDS011;23739;51.448;6.674;2023-05-10T00:12:56;15.07;;;10.63;;
37905;SDS011;23739;51.448;6.674;2023-05-10T00:15:22;12.15;;;9.60;;
37905;SDS011;23739;51.448;6.674;2023-05-10T00:17:48;14.73;;;9.93;;
37905;SDS011;23739;51.448;6.674;2023-05-10T00:20:14;14.32;;;10.73;;
37905;SDS011;23739;51.448;6.674;2023-05-10T00:22:40;12.88;;;8.95;;
37905;SDS011;23739;51.448;6.674;2023-05-10T00:25:07;14.25;;;10.10;;
37905;SDS011;23739;51.448;6.674;2023-05-10T00:27:33;13.32;;;10.25;;
37905;SDS011;23739;51.448;6.674;2023-05-10T00:29:59;14.10;;;9.80;;
37905;SDS011;23739;51.448;6.674;2023-05-10T00:32:26;14.15;;;10.25;;
37905;SDS011;23739;51.448;6.674;2023-05-10T00:34:52;17.42;;;11.77;;
37905;SDS011;23739;51.448;6.674;2023-05-10T00:37:18;15.18;;;11.70;;
37905;SDS011;23739;51.448;6.674;2023-05-10T00:39:44;17.75;;;11.45;;
37905;SDS011;23739;51.448;6.674;2023-05-10T00:42:10;16.48;;;12.63;;
37905;SDS011;23739;51.448;6.674;2023-05-10T00:44:36;17.63;;;12.80;;
37905;SDS011;23739;51.448;6.674;2023-05-10T00:47:03;17.38;;;12.52;;
37905;SDS011;23739;51.448;6.674;2023-05-10T00:49:29;18.25;;;13.27;;
37905;SDS011;23739;51.448;6.674;2023-05-10T00:51:56;17.85;;;13.38;;
37905;SDS011;23739;51.448;6.674;2023-05-10T00:54:22;19.55;;;14.10;;
37905;SDS011;23739;51.448;6.674;2023-05-10T00:56:48;18.33;;;12.85;;
37905;SDS011;23739;51.448;6.674;2023-05-10T00:59:15;18.67;;;12.50;;
37905;SDS011;23739;51.448;6.674;2023-05-10T01:01:42;17.25;;;12.27;;
37905;SDS011;23739;51.448;6.674;2023-05-10T01:04:09;18.02;;;12.75;;
37905;SDS011;23739;51.448;6.674;2023-05-10T01:06:36;22.38;;;12.95;;
37905;SDS011;23739;51.448;6.674;2023-05-10T01:09:02;16.65;;;12.10;;
37905;SDS011;23739;51.448;6.674;2023-05-10T01:11:28;17.55;;;11.68;;
37905;SDS011;23739;51.448;6.674;2023-05-10T01:13:57;16.27;;;11.93;;
37905;SDS011;23739;51.448;6.674;2023-05-10T01:16:23;19.40;;;13.10;;
37905;SDS011;23739;51.448;6.674;2023-05-10T01:18:50;18.60;;;13.20;;
37905;SDS011;23739;51.448;6.674;2023-05-10T01:21:19;18.13;;;14.07;;
37905;SDS011;23739;51.448;6.674;2023-05-10T01:29:32;17.90;;;13.85;;
37905;SDS011;23739;51.448;6.674;2023-05-10T01:34:35;16.42;;;13.00;;
37905;SDS011;23739;51.448;6.674;2023-05-10T01:37:09;18.13;;;12.50;;
37905;SDS011;23739;51.448;6.674;2023-05-10T01:39:41;19.52;;;14.20;;
37905;SDS011;23739;51.448;6.674;2023-05-10T01:42:10;18.23;;;12.93;;
37905;SDS011;23739;51.448;6.674;2023-05-10T01:44:42;18.73;;;13.52;;
37905;SDS011;23739;51.448;6.674;2023-05-10T01:49:45;21.00;;;14.25;;
37905;SDS011;23739;51.448;6.674;2023-05-10T01:52:14;23.23;;;15.90;;
37905;SDS011;23739;51.448;6.674;2023-05-10T01:54:43;22.05;;;15.18;;
37905;SDS011;23739;51.448;6.674;2023-05-10T01:57:10;23.25;;;15.30;;
37905;SDS011;23739;51.448;6.674;2023-05-10T01:59:38;25.33;;;16.88;;
37905;SDS011;23739;51.448;6.674;2023-05-10T02:02:06;22.00;;;15.43;;
37905;SDS011;23739;51.448;6.674;2023-05-10T02:04:33;22.73;;;17.27;;
37905;SDS011;23739;51.448;6.674;2023-05-10T02:07:01;20.73;;;15.85;;
37905;SDS011;23739;51.448;6.674;2023-05-10T02:09:27;24.25;;;16.95;;
37905;SDS011;23739;51.448;6.674;2023-05-10T02:11:54;24.63;;;16.95;;
37905;SDS011;23739;51.448;6.674;2023-05-10T02:14:22;22.77;;;17.27;;
37905;SDS011;23739;51.448;6.674;2023-05-10T02:16:49;21.67;;;16.33;;
37905;SDS011;23739;51.448;6.674;2023-05-10T02:19:16;24.98;;;16.35;;
37905;SDS011;23739;51.448;6.674;2023-05-10T02:21:43;21.20;;;15.20;;
37905;SDS011;23739;51.448;6.674;2023-05-10T02:24:11;20.73;;;16.20;;
37905;SDS011;23739;51.448;6.674;2023-05-10T02:26:37;22.88;;;16.70;;
37905;SDS011;23739;51.448;6.674;2023-05-10T02:29:04;25.35;;;17.75;;
37905;SDS011;23739;51.448;6.674;2023-05-10T02:31:32;26.15;;;16.42;;
37905;SDS011;23739;51.448;6.674;2023-05-10T02:33:59;24.67;;;16.17;;
37905;SDS011;23739;51.448;6.674;2023-05-10T02:36:25;21.63;;;15.38;;
37905;SDS011;23739;51.448;6.674;2023-05-10T02:38:52;24.85;;;16.80;;
37905;SDS011;23739;51.448;6.674;2023-05-10T02:41:20;23.27;;;15.27;;
37905;SDS011;23739;51.448;6.674;2023-05-10T02:43:49;23.00;;;15.48;;
37905;SDS011;23739;51.448;6.674;2023-05-10T02:46:16;27.45;;;17.33;;
37905;SDS011;23739;51.448;6.674;2023-05-10T02:48:43;22.50;;;16.25;;
37905;SDS011;23739;51.448;6.674;2023-05-10T02:51:09;25.15;;;16.05;;
37905;SDS011;23739;51.448;6.674;2023-05-10T02:53:38;23.33;;;15.63;;
37905;SDS011;23739;51.448;6.674;2023-05-10T02:56:08;23.85;;;15.40;;
37905;SDS011;23739;51.448;6.674;2023-05-10T02:58:38;21.98;;;16.08;;
37905;SDS011;23739;51.448;6.674;2023-05-10T03:01:04;23.27;;;14.70;;
37905;SDS011;23739;51.448;6.674;2023-05-10T03:03:32;20.65;;;14.27;;
37905;SDS011;23739;51.448;6.674;2023-05-10T03:05:58;22.40;;;15.02;;
37905;SDS011;23739;51.448;6.674;2023-05-10T03:08:24;22.95;;;15.35;;
37905;SDS011;23739;51.448;6.674;2023-05-10T03:10:55;21.45;;;14.95;;
37905;SDS011;23739;51.448;6.674;2023-05-10T03:13:32;22.63;;;14.75;;
37905;SDS011;23739;51.448;6.674;2023-05-10T03:16:15;20.35;;;14.65;;
37905;SDS011;23739;51.448;6.674;2023-05-10T03:21:08;22.20;;;15.35;;
37905;SDS011;23739;51.448;6.674;2023-05-10T03:23:44;21.02;;;14.45;;
37905;SDS011;23739;51.448;6.674;2023-05-10T03:26:17;22.95;;;14.82;;
37905;SDS011;23739;51.448;6.674;2023-05-10T03:28:43;21.92;;;14.40;;
37905;SDS011;23739;51.448;6.674;2023-05-10T03:31:09;20.52;;;14.68;;
37905;SDS011;23739;51.448;6.674;2023-05-10T03:33:41;21.75;;;14.57;;
37905;SDS011;23739;51.448;6.674;2023-05-10T03:36:12;24.70;;;16.40;;
37905;SDS011;23739;51.448;6.674;2023-05-10T03:38:38;23.77;;;13.98;;
37905;SDS011;23739;51.448;6.674;2023-05-10T03:41:04;24.67;;;14.55;;
37905;SDS011;23739;51.448;6.674;2023-05-10T03:43:31;24.17;;;15.23;;
37905;SDS011;23739;51.448;6.674;2023-05-10T03:45:57;18.67;;;13.55;;
37905;SDS011;23739;51.448;6.674;2023-05-10T03:48:23;22.60;;;14.40;;
37905;SDS011;23739;51.448;6.674;2023-05-10T03:50:49;21.17;;;15.48;;
37905;SDS011;23739;51.448;6.674;2023-05-10T03:53:16;23.98;;;15.38;;
37905;SDS011;23739;51.448;6.674;2023-05-10T03:55:42;23.70;;;15.07;;
37905;SDS011;23739;51.448;6.674;2023-05-10T03:58:10;24.70;;;15.27;;
37905;SDS011;23739;51.448;6.674;2023-05-10T04:00:36;26.40;;;16.05;;
37905;SDS011;23739;51.448;6.674;2023-05-10T04:03:09;21.35;;;15.20;;
37905;SDS011;23739;51.448;6.674;2023-05-10T04:05:35;25.35;;;16.05;;
37905;SDS011;23739;51.448;6.674;2023-05-10T04:08:01;20.30;;;13.93;;
37905;SDS011;23739;51.448;6.674;2023-05-10T04:10:28;22.67;;;15.07;;
37905;SDS011;23739;51.448;6.674;2023-05-10T04:12:54;22.42;;;15.15;;
37905;SDS011;23739;51.448;6.674;2023-05-10T04:15:20;25.85;;;15.98;;
37905;SDS011;23739;51.448;6.674;2023-05-10T04:17:46;26.55;;;16.92;;
37905;SDS011;23739;51.448;6.674;2023-05-10T04:20:12;26.08;;;16.42;;
37905;SDS011;23739;51.448;6.674;2023-05-10T04:22:39;23.02;;;16.05;;
37905;SDS011;23739;51.448;6.674;2023-05-10T04:25:05;31.13;;;17.92;;
37905;SDS011;23739;51.448;6.674;2023-05-10T04:27:32;26.50;;;18.38;;
37905;SDS011;23739;51.448;6.674;2023-05-10T04:29:58;28.27;;;18.38;;
37905;SDS011;23739;51.448;6.674;2023-05-10T04:32:24;28.08;;;16.95;;
37905;SDS011;23739;51.448;6.674;2023-05-10T04:34:50;30.95;;;18.40;;
37905;SDS011;23739;51.448;6.674;2023-05-10T04:37:17;31.75;;;19.85;;
37905;SDS011;23739;51.448;6.674;2023-05-10T04:39:43;29.20;;;19.17;;
37905;SDS011;23739;51.448;6.674;2023-05-10T04:42:09;35.22;;;20.00;;
37905;SDS011;23739;51.448;6.674;2023-05-10T04:44:36;36.10;;;20.20;;
37905;SDS011;23739;51.448;6.674;2023-05-10T04:47:02;38.30;;;21.38;;
37905;SDS011;23739;51.448;6.674;2023-05-10T04:49:29;35.08;;;21.67;;
37905;SDS011;23739;51.448;6.674;2023-05-10T04:51:55;37.55;;;23.40;;
37905;SDS011;23739;51.448;6.674;2023-05-10T04:54:21;37.92;;;23.35;;
37905;SDS011;23739;51.448;6.674;2023-05-10T04:56:47;41.72;;;23.45;;
37905;SDS011;23739;51.448;6.674;2023-05-10T04:59:14;36.25;;;22.70;;
37905;SDS011;23739;51.448;6.674;2023-05-10T05:01:40;38.10;;;22.98;;
37905;SDS011;23739;51.448;6.674;2023-05-10T05:04:06;38.03;;;23.67;;
37905;SDS011;23739;51.448;6.674;2023-05-10T05:06:32;41.35;;;24.08;;
37905;SDS011;23739;51.448;6.674;2023-05-10T05:08:58;39.80;;;23.85;;
37905;SDS011;23739;51.448;6.674;2023-05-10T05:11:24;42.35;;;23.95;;
37905;SDS011;23739;51.448;6.674;2023-05-10T05:13:51;40.83;;;25.30;;
37905;SDS011;23739;51.448;6.674;2023-05-10T05:16:17;42.38;;;26.88;;
37905;SDS011;23739;51.448;6.674;2023-05-10T05:18:43;42.90;;;25.38;;
37905;SDS011;23739;51.448;6.674;2023-05-10T05:21:15;41.58;;;25.33;;
37905;SDS011;23739;51.448;6.674;2023-05-10T05:23:41;41.92;;;26.88;;
37905;SDS011;23739;51.448;6.674;2023-05-10T05:26:08;43.85;;;26.05;;
37905;SDS011;23739;51.448;6.674;2023-05-10T05:28:34;43.33;;;26.15;;
37905;SDS011;23739;51.448;6.674;2023-05-10T05:31:02;49.28;;;26.35;;
37905;SDS011;23739;51.448;6.674;2023-05-10T05:33:28;45.28;;;27.48;;
37905;SDS011;23739;51.448;6.674;2023-05-10T05:35:55;51.67;;;27.90;;
37905;SDS011;23739;51.448;6.674;2023-05-10T05:38:21;46.28;;;26.50;;
37905;SDS011;23739;51.448;6.674;2023-05-10T05:40:48;49.10;;;28.48;;
37905;SDS011;23739;51.448;6.674;2023-05-10T05:43:14;48.42;;;28.48;;
37905;SDS011;23739;51.448;6.674;2023-05-10T05:45:41;46.53;;;27.90;;
37905;SDS011;23739;51.448;6.674;2023-05-10T05:48:07;50.25;;;29.95;;
37905;SDS011;23739;51.448;6.674;2023-05-10T05:50:33;51.85;;;29.90;;
37905;SDS011;23739;51.448;6.674;2023-05-10T05:52:59;55.97;;;29.77;;
37905;SDS011;23739;51.448;6.674;2023-05-10T05:55:25;56.50;;;30.75;;
37905;SDS011;23739;51.448;6.674;2023-05-10T05:57:51;49.75;;;29.27;;
37905;SDS011;23739;51.448;6.674;2023-05-10T06:00:17;53.80;;;30.80;;
37905;SDS011;23739;51.448;6.674;2023-05-10T06:02:43;50.75;;;29.55;;
37905;SDS011;23739;51.448;6.674;2023-05-10T06:05:10;49.88;;;29.25;;
37905;SDS011;23739;51.448;6.674;2023-05-10T06:07:36;51.67;;;28.92;;
37905;SDS011;23739;51.448;6.674;2023-05-10T06:10:02;54.78;;;28.98;;
37905;SDS011;23739;51.448;6.674;2023-05-10T06:12:28;53.75;;;31.55;;
37905;SDS011;23739;51.448;6.674;2023-05-10T06:14:55;54.38;;;28.85;;
37905;SDS011;23739;51.448;6.674;2023-05-10T06:17:21;55.65;;;33.33;;
37905;SDS011;23739;51.448;6.674;2023-05-10T06:19:47;53.13;;;30.75;;
37905;SDS011;23739;51.448;6.674;2023-05-10T06:22:13;56.55;;;30.92;;
37905;SDS011;23739;51.448;6.674;2023-05-10T06:24:39;53.03;;;30.08;;
37905;SDS011;23739;51.448;6.674;2023-05-10T06:27:06;52.38;;;29.98;;
37905;SDS011;23739;51.448;6.674;2023-05-10T06:29:32;56.88;;;31.15;;
37905;SDS011;23739;51.448;6.674;2023-05-10T06:31:58;55.42;;;30.00;;
37905;SDS011;23739;51.448;6.674;2023-05-10T06:34:25;53.83;;;30.10;;
37905;SDS011;23739;51.448;6.674;2023-05-10T06:36:51;64.05;;;30.73;;
37905;SDS011;23739;51.448;6.674;2023-05-10T06:39:17;56.78;;;29.38;;
37905;SDS011;23739;51.448;6.674;2023-05-10T06:41:43;52.63;;;30.27;;
37905;SDS011;23739;51.448;6.674;2023-05-10T06:44:09;54.15;;;29.27;;
37905;SDS011;23739;51.448;6.674;2023-05-10T06:46:35;55.13;;;31.42;;
37905;SDS011;23739;51.448;6.674;2023-05-10T06:49:02;60.20;;;29.92;;
37905;SDS011;23739;51.448;6.674;2023-05-10T06:51:28;55.50;;;31.77;;
37905;SDS011;23739;51.448;6.674;2023-05-10T06:53:54;53.78;;;31.15;;
37905;SDS011;23739;51.448;6.674;2023-05-10T06:56:20;58.35;;;30.42;;
37905;SDS011;23739;51.448;6.674;2023-05-10T06:58:47;53.45;;;30.58;;
37905;SDS011;23739;51.448;6.674;2023-05-10T07:01:13;53.70;;;29.80;;
37905;SDS011;23739;51.448;6.674;2023-05-10T07:03:39;53.00;;;29.17;;
37905;SDS011;23739;51.448;6.674;2023-05-10T07:06:06;49.67;;;29.90;;
37905;SDS011;23739;51.448;6.674;2023-05-10T07:08:32;54.03;;;30.75;;
37905;SDS011;23739;51.448;6.674;2023-05-10T07:11:00;48.55;;;25.83;;
37905;SDS011;23739;51.448;6.674;2023-05-10T07:13:26;48.83;;;26.33;;
37905;SDS011;23739;51.448;6.674;2023-05-10T07:15:52;54.97;;;27.67;;
37905;SDS011;23739;51.448;6.674;2023-05-10T07:18:19;54.65;;;27.30;;
37905;SDS011;23739;51.448;6.674;2023-05-10T07:20:45;58.78;;;31.20;;
37905;SDS011;23739;51.448;6.674;2023-05-10T07:23:11;57.85;;;29.05;;
37905;SDS011;23739;51.448;6.674;2023-05-10T07:25:37;59.60;;;29.77;;
37905;SDS011;23739;51.448;6.674;2023-05-10T07:28:03;60.00;;;30.50;;
37905;SDS011;23739;51.448;6.674;2023-05-10T07:30:30;62.72;;;31.13;;
37905;SDS011;23739;51.448;6.674;2023-05-10T07:32:56;60.47;;;31.70;;
37905;SDS011;23739;51.448;6.674;2023-05-10T07:35:22;60.05;;;31.33;;
37905;SDS011;23739;51.448;6.674;2023-05-10T07:37:48;58.08;;;31.90;;
37905;SDS011;23739;51.448;6.674;2023-05-10T07:40:14;54.60;;;31.10;;
37905;SDS011;23739;51.448;6.674;2023-05-10T07:42:40;51.60;;;29.83;;
37905;SDS011;23739;51.448;6.674;2023-05-10T07:45:07;55.67;;;29.35;;
37905;SDS011;23739;51.448;6.674;2023-05-10T07:47:34;50.35;;;26.00;;
37905;SDS011;23739;51.448;6.674;2023-05-10T07:50:00;59.13;;;27.65;;
37905;SDS011;23739;51.448;6.674;2023-05-10T07:52:26;52.10;;;28.48;;
37905;SDS011;23739;51.448;6.674;2023-05-10T07:54:52;51.88;;;26.98;;
37905;SDS011;23739;51.448;6.674;2023-05-10T07:57:19;49.20;;;27.02;;
37905;SDS011;23739;51.448;6.674;2023-05-10T07:59:45;49.17;;;28.40;;
37905;SDS011;23739;51.448;6.674;2023-05-10T08:02:13;47.60;;;27.65;;
37905;SDS011;23739;51.448;6.674;2023-05-10T08:04:39;55.08;;;27.98;;
37905;SDS011;23739;51.448;6.674;2023-05-10T08:07:05;56.30;;;28.63;;
37905;SDS011;23739;51.448;6.674;2023-05-10T08:09:32;58.72;;;28.58;;
37905;SDS011;23739;51.448;6.674;2023-05-10T08:11:58;58.22;;;29.45;;
37905;SDS011;23739;51.448;6.674;2023-05-10T08:14:28;49.65;;;27.23;;
37905;SDS011;23739;51.448;6.674;2023-05-10T08:16:54;45.03;;;26.30;;
37905;SDS011;23739;51.448;6.674;2023-05-10T08:19:20;43.30;;;25.30;;
37905;SDS011;23739;51.448;6.674;2023-05-10T08:21:48;44.08;;;24.92;;
37905;SDS011;23739;51.448;6.674;2023-05-10T08:24:14;42.17;;;25.60;;
37905;SDS011;23739;51.448;6.674;2023-05-10T08:26:40;41.30;;;26.27;;
37905;SDS011;23739;51.448;6.674;2023-05-10T08:29:06;48.20;;;26.48;;
37905;SDS011;23739;51.448;6.674;2023-05-10T08:31:32;40.78;;;25.33;;
37905;SDS011;23739;51.448;6.674;2023-05-10T08:33:58;40.22;;;23.73;;
37905;SDS011;23739;51.448;6.674;2023-05-10T08:36:25;39.92;;;24.10;;
37905;SDS011;23739;51.448;6.674;2023-05-10T08:38:51;38.83;;;23.50;;
37905;SDS011;23739;51.448;6.674;2023-05-10T08:41:19;42.47;;;25.75;;
37905;SDS011;23739;51.448;6.674;2023-05-10T08:43:46;34.60;;;22.48;;
37905;SDS011;23739;51.448;6.674;2023-05-10T08:46:16;38.40;;;23.45;;
37905;SDS011;23739;51.448;6.674;2023-05-10T08:48:44;36.10;;;23.42;;
37905;SDS011;23739;51.448;6.674;2023-05-10T08:51:14;39.38;;;22.67;;
37905;SDS011;23739;51.448;6.674;2023-05-10T08:53:40;36.17;;;22.73;;
37905;SDS011;23739;51.448;6.674;2023-05-10T08:56:06;34.22;;;20.58;;
37905;SDS011;23739;51.448;6.674;2023-05-10T08:58:32;26.00;;;18.60;;
37905;SDS011;23739;51.448;6.674;2023-05-10T09:00:59;24.40;;;15.27;;
37905;SDS011;23739;51.448;6.674;2023-05-10T09:03:25;20.85;;;14.63;;
37905;SDS011;23739;51.448;6.674;2023-05-10T09:05:51;23.95;;;16.13;;
37905;SDS011;23739;51.448;6.674;2023-05-10T09:08:17;24.38;;;14.65;;
37905;SDS011;23739;51.448;6.674;2023-05-10T09:10:44;21.88;;;13.70;;
37905;SDS011;23739;51.448;6.674;2023-05-10T09:13:12;24.30;;;14.80;;
37905;SDS011;23739;51.448;6.674;2023-05-10T09:15:40;21.60;;;15.15;;
37905;SDS011;23739;51.448;6.674;2023-05-10T09:18:21;23.70;;;13.77;;
37905;SDS011;23739;51.448;6.674;2023-05-10T09:20:48;21.13;;;14.43;;
37905;SDS011;23739;51.448;6.674;2023-05-10T09:23:14;20.38;;;14.00;;
37905;SDS011;23739;51.448;6.674;2023-05-10T09:25:43;22.42;;;14.25;;
37905;SDS011;23739;51.448;6.674;2023-05-10T09:28:10;19.20;;;14.38;;
37905;SDS011;23739;51.448;6.674;2023-05-10T09:30:37;22.35;;;15.30;;
37905;SDS011;23739;51.448;6.674;2023-05-10T09:33:04;23.25;;;15.27;;
37905;SDS011;23739;51.448;6.674;2023-05-10T09:35:31;23.55;;;16.02;;
37905;SDS011;23739;51.448;6.674;2023-05-10T09:37:59;21.52;;;16.40;;
37905;SDS011;23739;51.448;6.674;2023-05-10T09:40:27;25.50;;;16.55;;
37905;SDS011;23739;51.448;6.674;2023-05-10T09:45:20;26.65;;;16.38;;
37905;SDS011;23739;51.448;6.674;2023-05-10T09:47:46;26.38;;;17.85;;
37905;SDS011;23739;51.448;6.674;2023-05-10T09:50:13;25.38;;;18.25;;
37905;SDS011;23739;51.448;6.674;2023-05-10T09:53:12;31.45;;;18.13;;
37905;SDS011;23739;51.448;6.674;2023-05-10T09:55:42;25.55;;;16.17;;
37905;SDS011;23739;51.448;6.674;2023-05-10T09:58:12;32.95;;;18.25;;
37905;SDS011;23739;51.448;6.674;2023-05-10T10:00:42;25.13;;;17.90;;
37905;SDS011;23739;51.448;6.674;2023-05-10T10:03:15;27.40;;;17.80;;
37905;SDS011;23739;51.448;6.674;2023-05-10T10:05:41;23.88;;;16.50;;
37905;SDS011;23739;51.448;6.674;2023-05-10T10:08:08;20.73;;;16.25;;
37905;SDS011;23739;51.448;6.674;2023-05-10T10:10:34;24.50;;;16.63;;
37905;SDS011;23739;51.448;6.674;2023-05-10T10:13:04;28.35;;;17.77;;
37905;SDS011;23739;51.448;6.674;2023-05-10T10:15:30;27.83;;;16.55;;
37905;SDS011;23739;51.448;6.674;2023-05-10T10:17:56;27.02;;;16.20;;
37905;SDS011;23739;51.448;6.674;2023-05-10T10:20:22;26.85;;;16.98;;
37905;SDS011;23739;51.448;6.674;2023-05-10T10:22:50;28.88;;;17.02;;
37905;SDS011;23739;51.448;6.674;2023-05-10T10:25:17;27.35;;;17.95;;
37905;SDS011;23739;51.448;6.674;2023-05-10T10:30:23;26.40;;;16.00;;
37905;SDS011;23739;51.448;6.674;2023-05-10T10:33:55;22.80;;;16.85;;
37905;SDS011;23739;51.448;6.674;2023-05-10T10:35:49;23.33;;;16.92;;
37905;SDS011;23739;51.448;6.674;2023-05-10T10:38:19;25.50;;;17.63;;
37905;SDS011;23739;51.448;6.674;2023-05-10T10:40:46;25.77;;;18.08;;
37905;SDS011;23739;51.448;6.674;2023-05-10T10:43:26;29.10;;;18.85;;
37905;SDS011;23739;51.448;6.674;2023-05-10T10:48:41;29.10;;;18.70;;
37905;SDS011;23739;51.448;6.674;2023-05-10T10:51:07;26.17;;;18.63;;
37905;SDS011;23739;51.448;6.674;2023-05-10T10:53:33;26.75;;;18.00;;
37905;SDS011;23739;51.448;6.674;2023-05-10T10:56:09;25.08;;;18.23;;
37905;SDS011;23739;51.448;6.674;2023-05-10T10:58:37;26.55;;;17.10;;
37905;SDS011;23739;51.448;6.674;2023-05-10T11:03:38;23.83;;;16.90;;
37905;SDS011;23739;51.448;6.674;2023-05-10T11:06:05;21.00;;;15.80;;
37905;SDS011;23739;51.448;6.674;2023-05-10T11:08:32;20.55;;;15.23;;
37905;SDS011;23739;51.448;6.674;2023-05-10T11:13:31;23.25;;;15.40;;
37905;SDS011;23739;51.448;6.674;2023-05-10T11:15:58;18.15;;;13.25;;
37905;SDS011;23739;51.448;6.674;2023-05-10T11:18:25;20.40;;;15.27;;
37905;SDS011;23739;51.448;6.674;2023-05-10T11:20:52;17.10;;;13.30;;
37905;SDS011;23739;51.448;6.674;2023-05-10T11:23:18;19.90;;;14.77;;
37905;SDS011;23739;51.448;6.674;2023-05-10T11:25:47;18.45;;;13.50;;
37905;SDS011;23739;51.448;6.674;2023-05-10T11:28:13;18.42;;;13.57;;
37905;SDS011;23739;51.448;6.674;2023-05-10T11:30:40;15.07;;;12.30;;
37905;SDS011;23739;51.448;6.674;2023-05-10T11:33:06;23.73;;;15.68;;
37905;SDS011;23739;51.448;6.674;2023-05-10T11:35:39;17.45;;;14.32;;
37905;SDS011;23739;51.448;6.674;2023-05-10T11:38:08;12.07;;;10.48;;
37905;SDS011;23739;51.448;6.674;2023-05-10T11:40:35;12.25;;;10.75;;
37905;SDS011;23739;51.448;6.674;2023-05-10T11:43:02;14.35;;;9.13;;
37905;SDS011;23739;51.448;6.674;2023-05-10T11:45:29;15.18;;;9.40;;
37905;SDS011;23739;51.448;6.674;2023-05-10T11:47:56;11.13;;;9.23;;
37905;SDS011;23739;51.448;6.674;2023-05-10T11:50:23;11.90;;;8.63;;
37905;SDS011;23739;51.448;6.674;2023-05-10T11:52:53;12.35;;;9.40;;
37905;SDS011;23739;51.448;6.674;2023-05-10T11:55:20;12.98;;;9.40;;
37905;SDS011;23739;51.448;6.674;2023-05-10T11:57:46;10.25;;;8.50;;
37905;SDS011;23739;51.448;6.674;2023-05-10T12:00:13;12.10;;;8.85;;
37905;SDS011;23739;51.448;6.674;2023-05-10T12:02:39;10.52;;;8.70;;
37905;SDS011;23739;51.448;6.674;2023-05-10T12:05:08;17.23;;;9.07;;
37905;SDS011;23739;51.448;6.674;2023-05-10T12:07:38;12.55;;;8.73;;
37905;SDS011;23739;51.448;6.674;2023-05-10T12:10:10;10.90;;;7.88;;
37905;SDS011;23739;51.448;6.674;2023-05-10T12:12:46;11.70;;;8.57;;
37905;SDS011;23739;51.448;6.674;2023-05-10T12:15:20;11.60;;;9.48;;
37905;SDS011;23739;51.448;6.674;2023-05-10T12:17:47;15.05;;;8.10;;
37905;SDS011;23739;51.448;6.674;2023-05-10T12:20:20;11.32;;;8.63;;
37905;SDS011;23739;51.448;6.674;2023-05-10T12:22:53;14.60;;;9.23;;
37905;SDS011;23739;51.448;6.674;2023-05-10T12:25:20;10.27;;;8.38;;
37905;SDS011;23739;51.448;6.674;2023-05-10T12:27:53;12.38;;;7.88;;
37905;SDS011;23739;51.448;6.674;2023-05-10T12:30:24;10.68;;;8.65;;
37905;SDS011;23739;51.448;6.674;2023-05-10T12:32:50;9.95;;;8.75;;
37905;SDS011;23739;51.448;6.674;2023-05-10T12:35:17;8.73;;;7.65;;
37905;SDS011;23739;51.448;6.674;2023-05-10T12:37:48;9.40;;;7.45;;
37905;SDS011;23739;51.448;6.674;2023-05-10T12:40:14;9.68;;;6.97;;
37905;SDS011;23739;51.448;6.674;2023-05-10T12:42:40;9.40;;;7.57;;
37905;SDS011;23739;51.448;6.674;2023-05-10T12:45:07;10.57;;;6.60;;
37905;SDS011;23739;51.448;6.674;2023-05-10T12:47:34;9.18;;;8.15;;
37905;SDS011;23739;51.448;6.674;2023-05-10T12:50:00;9.48;;;7.00;;
37905;SDS011;23739;51.448;6.674;2023-05-10T12:52:27;7.38;;;6.13;;
37905;SDS011;23739;51.448;6.674;2023-05-10T12:54:54;10.80;;;7.03;;
37905;SDS011;23739;51.448;6.674;2023-05-10T12:57:20;8.13;;;6.32;;
37905;SDS011;23739;51.448;6.674;2023-05-10T12:59:46;7.90;;;5.43;;
37905;SDS011;23739;51.448;6.674;2023-05-10T13:02:13;5.30;;;4.25;;
37905;SDS011;23739;51.448;6.674;2023-05-10T13:04:39;6.30;;;4.65;;
37905;SDS011;23739;51.448;6.674;2023-05-10T13:07:06;7.55;;;5.15;;
37905;SDS011;23739;51.448;6.674;2023-05-10T13:09:32;9.43;;;7.45;;
37905;SDS011;23739;51.448;6.674;2023-05-10T13:11:59;11.65;;;7.20;;
37905;SDS011;23739;51.448;6.674;2023-05-10T13:14:25;10.02;;;6.63;;
37905;SDS011;23739;51.448;6.674;2023-05-10T13:16:51;11.98;;;6.43;;
37905;SDS011;23739;51.448;6.674;2023-05-10T13:19:18;9.32;;;6.78;;
37905;SDS011;23739;51.448;6.674;2023-05-10T13:21:44;8.90;;;6.75;;
37905;SDS011;23739;51.448;6.674;2023-05-10T13:24:10;9.18;;;6.88;;
37905;SDS011;23739;51.448;6.674;2023-05-10T13:26:38;8.07;;;7.15;;
37905;SDS011;23739;51.448;6.674;2023-05-10T13:29:06;8.90;;;7.55;;
37905;SDS011;23739;51.448;6.674;2023-05-10T13:31:32;7.55;;;6.45;;
37905;SDS011;23739;51.448;6.674;2023-05-10T13:33:58;7.63;;;6.82;;
37905;SDS011;23739;51.448;6.674;2023-05-10T13:36:24;9.10;;;8.20;;
37905;SDS011;23739;51.448;6.674;2023-05-10T13:38:50;8.85;;;7.20;;
37905;SDS011;23739;51.448;6.674;2023-05-10T13:41:17;9.35;;;8.38;;
37905;SDS011;23739;51.448;6.674;2023-05-10T13:43:43;9.82;;;8.13;;
37905;SDS011;23739;51.448;6.674;2023-05-10T13:46:09;12.27;;;8.43;;
37905;SDS011;23739;51.448;6.674;2023-05-10T13:48:35;9.23;;;7.80;;
37905;SDS011;23739;51.448;6.674;2023-05-10T13:51:04;10.75;;;9.75;;
37905;SDS011;23739;51.448;6.674;2023-05-10T13:53:30;9.50;;;8.15;;
37905;SDS011;23739;51.448;6.674;2023-05-10T13:55:56;11.63;;;8.70;;
37905;SDS011;23739;51.448;6.674;2023-05-10T13:58:23;12.40;;;7.93;;
37905;SDS011;23739;51.448;6.674;2023-05-10T14:00:49;10.63;;;8.77;;
37905;SDS011;23739;51.448;6.674;2023-05-10T14:03:15;12.82;;;9.30;;
37905;SDS011;23739;51.448;6.674;2023-05-10T14:05:41;12.60;;;9.20;;
37905;SDS011;23739;51.448;6.674;2023-05-10T14:08:08;12.32;;;9.75;;
37905;SDS011;23739;51.448;6.674;2023-05-10T14:10:35;8.77;;;6.72;;
37905;SDS011;23739;51.448;6.674;2023-05-10T14:13:01;9.02;;;7.97;;
37905;SDS011;23739;51.448;6.674;2023-05-10T14:15:28;9.52;;;8.00;;
37905;SDS011;23739;51.448;6.674;2023-05-10T14:17:55;11.48;;;7.93;;
37905;SDS011;23739;51.448;6.674;2023-05-10T14:20:21;7.80;;;6.65;;
37905;SDS011;23739;51.448;6.674;2023-05-10T14:22:47;9.68;;;7.68;;
37905;SDS011;23739;51.448;6.674;2023-05-10T14:25:13;12.25;;;9.00;;
37905;SDS011;23739;51.448;6.674;2023-05-10T14:27:40;9.75;;;8.77;;
37905;SDS011;23739;51.448;6.674;2023-05-10T14:30:07;11.57;;;9.63;;
37905;SDS011;23739;51.448;6.674;2023-05-10T14:32:33;15.15;;;12.90;;
37905;SDS011;23739;51.448;6.674;2023-05-10T14:35:01;13.57;;;12.10;;
37905;SDS011;23739;51.448;6.674;2023-05-10T14:37:27;15.23;;;12.23;;
37905;SDS011;23739;51.448;6.674;2023-05-10T14:39:54;16.05;;;12.75;;
37905;SDS011;23739;51.448;6.674;2023-05-10T14:42:20;18.25;;;13.82;;
37905;SDS011;23739;51.448;6.674;2023-05-10T14:44:46;19.85;;;12.45;;
37905;SDS011;23739;51.448;6.674;2023-05-10T14:47:13;14.80;;;12.68;;
37905;SDS011;23739;51.448;6.674;2023-05-10T14:49:39;13.73;;;10.50;;
37905;SDS011;23739;51.448;6.674;2023-05-10T14:52:06;16.13;;;10.95;;